createdAt,value
2023-05-10T00:00:55.651Z,13.24
2023-05-10T00:02:57.548Z,13.24
2023-05-10T00:04:59.250Z,13.23
2023-05-10T00:07:00.858Z,13.26
2023-05-10T00:09:02.460Z,13.23
2023-05-10T00:11:04.063Z,13.25
2023-05-10T00:13:05.676Z,13.24
2023-05-10T00:15:08.090Z,13.18
2023-05-10T00:17:09.704Z,13.21
2023-05-10T00:19:11.424Z,13.23
2023-05-10T00:21:13.239Z,13.20
2023-05-10T00:23:14.768Z,13.14
2023-05-10T00:25:16.416Z,13.20
2023-05-10T00:27:18.002Z,13.19
2023-05-10T00:29:20.548Z,13.14
2023-05-10T00:31:22.351Z,13.07
2023-05-10T00:33:24.088Z,13.15
2023-05-10T00:35:25.641Z,13.20
2023-05-10T00:37:27.256Z,13.18
2023-05-10T00:39:29.629Z,13.14
2023-05-10T00:41:33.710Z,13.09
2023-05-10T00:43:35.259Z,13.10
2023-05-10T00:45:38.141Z,13.05
2023-05-10T00:47:40.660Z,13.06
2023-05-10T00:49:42.725Z,13.09
2023-05-10T00:51:45.562Z,13.07
2023-05-10T00:53:47.484Z,13.06
2023-05-10T00:55:52.388Z,13.00
2023-05-10T00:57:54.926Z,12.95
2023-05-10T00:59:56.522Z,12.98
2023-05-10T01:01:59.312Z,13.01
2023-05-10T01:04:01.017Z,13.01
2023-05-10T01:06:02.920Z,13.03
2023-05-10T01:08:04.661Z,13.01
2023-05-10T01:10:10.207Z,12.97
2023-05-10T01:12:12.335Z,13.01
2023-05-10T01:14:14.520Z,13.00
2023-05-10T01:16:16.383Z,12.99
2023-05-10T01:18:21.631Z,13.02
2023-05-10T01:20:24.366Z,12.96
2023-05-10T01:22:32.207Z,12.98
2023-05-10T01:24:36.532Z,12.95
2023-05-10T01:26:44.076Z,12.96
2023-05-10T01:29:04.428Z,12.93
2023-05-10T01:31:31.811Z,12.97
2023-05-10T01:34:12.888Z,12.95
2023-05-10T01:36:20.464Z,12.98
2023-05-10T01:38:35.997Z,12.85
2023-05-10T01:40:43.680Z,12.92
2023-05-10T01:42:53.439Z,12.93
2023-05-10T01:45:01.152Z,12.94
2023-05-10T01:47:07.308Z,12.94
2023-05-10T01:49:19.954Z,12.95
2023-05-10T01:51:26.421Z,12.93
2023-05-10T01:53:28.921Z,12.96
2023-05-10T01:55:35.552Z,12.96
2023-05-10T01:57:40.602Z,12.93
2023-05-10T01:59:46.455Z,12.96
2023-05-10T02:01:49.865Z,12.98
2023-05-10T02:03:52.882Z,12.95
2023-05-10T02:05:56.162Z,12.92
2023-05-10T02:07:59.905Z,12.87
2023-05-10T02:10:02.726Z,12.86
2023-05-10T02:12:07.246Z,12.90
2023-05-10T02:14:11.326Z,12.92
2023-05-10T02:16:14.995Z,12.89
2023-05-10T02:18:17.874Z,12.92
2023-05-10T02:20:20.509Z,12.89
2023-05-10T02:22:23.355Z,12.79
2023-05-10T02:24:26.148Z,12.88
2023-05-10T02:26:28.659Z,12.94
2023-05-10T02:28:32.108Z,12.87
2023-05-10T02:30:35.790Z,12.89
2023-05-10T02:32:38.471Z,12.90
2023-05-10T02:34:41.781Z,12.84
2023-05-10T02:36:44.179Z,12.88
2023-05-10T02:38:47.448Z,12.88
2023-05-10T02:40:49.335Z,12.81
2023-05-10T02:42:53.476Z,12.78
2023-05-10T02:45:02.162Z,12.71
2023-05-10T02:47:04.584Z,12.79
2023-05-10T02:49:06.733Z,12.75
2023-05-10T02:51:09.160Z,12.71
2023-05-10T02:53:15.965Z,12.68
2023-05-10T02:55:20.192Z,12.64
2023-05-10T02:57:27.408Z,12.60
2023-05-10T02:59:29.076Z,12.67
2023-05-10T03:01:30.666Z,12.54
2023-05-10T03:03:32.091Z,12.61
2023-05-10T03:05:34.125Z,12.56
2023-05-10T03:07:36.344Z,12.47
2023-05-10T03:09:37.870Z,12.49
2023-05-10T03:11:57.779Z,12.43
2023-05-10T03:14:31.199Z,12.49
2023-05-10T03:16:47.971Z,12.43
2023-05-10T03:19:01.483Z,12.47
2023-05-10T03:21:07.155Z,12.40
2023-05-10T03:23:20.528Z,12.41
2023-05-10T03:25:23.879Z,12.44
2023-05-10T03:27:28.071Z,12.44
2023-05-10T03:29:31.789Z,12.32
2023-05-10T03:31:33.953Z,12.37
2023-05-10T03:33:35.634Z,12.34
2023-05-10T03:35:37.297Z,12.35
2023-05-10T03:37:39.112Z,12.37
2023-05-10T03:39:40.707Z,12.33
2023-05-10T03:41:42.499Z,12.30
2023-05-10T03:43:44.096Z,12.26
2023-05-10T03:45:45.634Z,12.31
2023-05-10T03:47:47.366Z,12.25
2023-05-10T03:49:48.943Z,12.27
2023-05-10T03:51:50.483Z,12.29
2023-05-10T03:53:52.178Z,12.28
2023-05-10T03:55:53.731Z,12.32
2023-05-10T03:57:55.271Z,12.33
2023-05-10T03:59:56.878Z,12.29
2023-05-10T04:01:58.435Z,12.31
2023-05-10T04:04:00.030Z,12.34
2023-05-10T04:06:08.574Z,12.33
2023-05-10T04:08:10.603Z,12.33
2023-05-10T04:10:12.795Z,12.34
2023-05-10T04:12:14.498Z,12.33
2023-05-10T04:14:16.209Z,12.35
2023-05-10T04:16:17.788Z,12.37
2023-05-10T04:18:19.397Z,12.37
2023-05-10T04:20:21.032Z,12.37
2023-05-10T04:22:22.650Z,12.39
2023-05-10T04:24:24.381Z,12.38
2023-05-10T04:26:26.638Z,12.38
2023-05-10T04:28:28.308Z,12.37
2023-05-10T04:30:30.300Z,12.39
2023-05-10T04:32:32.520Z,12.41
2023-05-10T04:34:35.211Z,12.42
2023-05-10T04:36:37.622Z,12.42
2023-05-10T04:38:39.409Z,12.43
2023-05-10T04:40:41.097Z,12.43
2023-05-10T04:42:42.640Z,12.46
2023-05-10T04:44:44.552Z,12.48
2023-05-10T04:46:47.290Z,12.49
2023-05-10T04:48:48.953Z,12.51
2023-05-10T04:50:50.511Z,12.52
2023-05-10T04:52:53.284Z,12.53
2023-05-10T04:54:54.934Z,12.55
2023-05-10T04:56:56.480Z,12.52
2023-05-10T04:58:57.975Z,12.53
2023-05-10T05:01:06.708Z,12.55
2023-05-10T05:03:08.298Z,12.52
2023-05-10T05:05:09.990Z,12.54
2023-05-10T05:07:11.751Z,12.53
2023-05-10T05:09:13.491Z,12.52
2023-05-10T05:11:15.030Z,12.46
2023-05-10T05:13:16.691Z,12.55
2023-05-10T05:15:18.276Z,12.50
2023-05-10T05:17:19.857Z,12.54
2023-05-10T05:19:21.717Z,12.60
2023-05-10T05:21:23.368Z,12.58
2023-05-10T05:23:25.846Z,12.56
2023-05-10T05:25:27.424Z,12.58
2023-05-10T05:27:29.123Z,12.64
2023-05-10T05:29:30.746Z,12.68
2023-05-10T05:31:32.377Z,12.74
2023-05-10T05:33:34.786Z,12.73
2023-05-10T05:35:36.331Z,12.78
2023-05-10T05:37:38.207Z,12.79
2023-05-10T05:39:39.735Z,12.73
2023-05-10T05:41:41.319Z,12.79
2023-05-10T05:43:42.812Z,12.85
2023-05-10T05:45:44.456Z,12.79
2023-05-10T05:47:46.214Z,12.89
2023-05-10T05:49:48.160Z,12.87
2023-05-10T05:51:51.279Z,12.92
2023-05-10T05:53:52.833Z,12.96
2023-05-10T05:55:58.936Z,13.01
2023-05-10T05:58:00.481Z,13.03
2023-05-10T06:00:02.358Z,13.06
2023-05-10T06:02:03.939Z,13.10
2023-05-10T06:04:05.570Z,13.11
2023-05-10T06:06:07.354Z,13.06
2023-05-10T06:08:08.968Z,13.09
2023-05-10T06:10:11.108Z,13.19
2023-05-10T06:12:12.909Z,13.28
2023-05-10T06:14:14.450Z,13.30
2023-05-10T06:16:15.981Z,13.23
2023-05-10T06:18:17.592Z,13.19
2023-05-10T06:20:19.357Z,13.21
2023-05-10T06:22:21.066Z,13.30
2023-05-10T06:24:22.820Z,13.34
2023-05-10T06:26:24.522Z,13.43
2023-05-10T06:28:26.079Z,13.37
2023-05-10T06:30:30.659Z,13.39
2023-05-10T06:32:32.270Z,13.32
2023-05-10T06:34:33.997Z,13.47
2023-05-10T06:36:35.525Z,13.52
2023-05-10T06:38:37.202Z,13.56
2023-05-10T06:40:42.641Z,13.75
2023-05-10T06:42:46.004Z,13.86
2023-05-10T06:44:47.626Z,13.86
2023-05-10T06:46:49.356Z,13.86
2023-05-10T06:48:50.956Z,13.82
2023-05-10T06:50:52.579Z,13.79
2023-05-10T06:52:54.253Z,13.76
2023-05-10T06:54:55.762Z,13.85
2023-05-10T06:56:57.373Z,13.76
2023-05-10T06:58:59.001Z,13.82
2023-05-10T07:01:06.927Z,13.68
2023-05-10T07:03:08.598Z,13.68
2023-05-10T07:05:10.195Z,13.72
2023-05-10T07:07:11.991Z,13.80
2023-05-10T07:09:14.462Z,13.89
2023-05-10T07:11:16.025Z,13.92
2023-05-10T07:13:17.709Z,14.14
2023-05-10T07:15:19.770Z,14.08
2023-05-10T07:17:21.416Z,14.31
2023-05-10T07:19:23.089Z,14.40
2023-05-10T07:21:29.668Z,14.32
2023-05-10T07:23:31.464Z,14.40
2023-05-10T07:25:32.969Z,14.46
2023-05-10T07:27:34.709Z,14.73
2023-05-10T07:29:37.164Z,14.55
2023-05-10T07:31:38.884Z,14.54
2023-05-10T07:33:40.937Z,14.71
2023-05-10T07:35:43.367Z,14.90
2023-05-10T07:37:44.869Z,15.04
2023-05-10T07:39:46.408Z,15.10
2023-05-10T07:41:47.994Z,14.98
2023-05-10T07:43:49.574Z,14.83
2023-05-10T07:45:51.620Z,14.75
2023-05-10T07:47:54.309Z,14.88
2023-05-10T07:49:56.306Z,14.83
2023-05-10T07:51:57.877Z,15.09
2023-05-10T07:53:59.604Z,15.36
2023-05-10T07:56:33.664Z,15.32
2023-05-10T07:58:35.310Z,15.25
2023-05-10T08:00:40.257Z,15.23
2023-05-10T08:02:42.157Z,15.26
2023-05-10T08:04:43.926Z,15.64
2023-05-10T08:06:45.727Z,15.64
2023-05-10T08:08:50.488Z,15.58
2023-05-10T08:10:52.084Z,15.92
2023-05-10T08:12:53.672Z,15.90
2023-05-10T08:14:55.256Z,15.89
2023-05-10T08:16:57.237Z,15.87
2023-05-10T08:18:58.955Z,15.90
2023-05-10T08:21:00.664Z,16.10
2023-05-10T08:23:02.247Z,16.13
2023-05-10T08:25:03.977Z,16.05
2023-05-10T08:27:09.129Z,16.04
2023-05-10T08:29:10.729Z,15.90
2023-05-10T08:31:12.928Z,15.98
2023-05-10T08:33:14.581Z,16.13
2023-05-10T08:35:17.128Z,16.16
2023-05-10T08:37:18.833Z,16.38
2023-05-10T08:39:29.921Z,16.17
2023-05-10T08:41:37.287Z,16.79
2023-05-10T08:43:40.053Z,16.49
2023-05-10T08:45:48.396Z,16.39
2023-05-10T08:47:50.994Z,16.38
2023-05-10T08:49:53.589Z,16.27
2023-05-10T08:51:57.143Z,16.51
2023-05-10T08:53:59.043Z,16.77
2023-05-10T08:56:02.032Z,17.27
2023-05-10T08:58:04.851Z,17.30
2023-05-10T09:00:07.484Z,17.25
2023-05-10T09:02:12.399Z,17.07
2023-05-10T09:04:14.202Z,17.29
2023-05-10T09:06:16.721Z,16.94
2023-05-10T09:08:18.700Z,16.78
2023-05-10T09:10:21.232Z,17.09
2023-05-10T09:12:23.760Z,17.22
2023-05-10T09:14:26.251Z,16.94
2023-05-10T09:16:27.899Z,17.30
2023-05-10T09:18:29.755Z,17.13
2023-05-10T09:20:32.087Z,17.37
2023-05-10T09:22:36.842Z,17.57
2023-05-10T09:24:43.392Z,17.57
2023-05-10T09:26:52.360Z,17.66
2023-05-10T09:28:58.937Z,17.21
2023-05-10T09:31:00.575Z,16.94
2023-05-10T09:33:02.417Z,17.26
2023-05-10T09:35:31.230Z,17.23
2023-05-10T09:37:32.857Z,17.44
2023-05-10T09:39:36.318Z,17.42
2023-05-10T09:41:37.873Z,17.50
2023-05-10T09:43:39.443Z,17.80
2023-05-10T09:45:42.327Z,18.18
2023-05-10T09:47:43.990Z,18.13
2023-05-10T09:49:51.112Z,18.56
2023-05-10T09:52:08.924Z,18.47
2023-05-10T09:54:16.017Z,18.35
2023-05-10T09:56:38.571Z,17.96
2023-05-10T09:58:40.645Z,18.17
2023-05-10T10:00:46.299Z,17.81
2023-05-10T10:02:55.247Z,18.40
2023-05-10T10:05:00.635Z,18.69
2023-05-10T10:07:06.193Z,18.55
2023-05-10T10:09:08.436Z,18.71
2023-05-10T10:11:10.016Z,18.54
2023-05-10T10:13:11.608Z,19.00
2023-05-10T10:15:15.262Z,18.99
2023-05-10T10:17:18.746Z,18.90
2023-05-10T10:19:24.180Z,19.01
2023-05-10T10:21:26.042Z,19.16
2023-05-10T10:23:28.428Z,19.21
2023-05-10T10:25:30.254Z,18.91
2023-05-10T10:27:52.836Z,19.37
2023-05-10T10:30:14.467Z,19.55
2023-05-10T10:32:37.633Z,19.30
2023-05-10T10:34:40.746Z,18.86
2023-05-10T10:36:45.880Z,19.02
2023-05-10T10:38:47.364Z,19.15
2023-05-10T10:40:49.086Z,19.35
2023-05-10T10:42:54.663Z,19.03
2023-05-10T10:45:13.298Z,18.82
2023-05-10T10:47:25.492Z,18.50
2023-05-10T10:49:28.004Z,18.44
2023-05-10T10:51:30.511Z,18.50
2023-05-10T10:53:33.085Z,18.64
2023-05-10T10:55:34.796Z,19.02
2023-05-10T10:57:42.470Z,18.84
2023-05-10T10:59:47.814Z,18.81
2023-05-10T11:01:52.980Z,18.60
2023-05-10T11:04:03.714Z,18.40
2023-05-10T11:06:05.436Z,18.53
2023-05-10T11:08:17.521Z,18.76
2023-05-10T11:10:25.236Z,18.86
2023-05-10T11:12:26.786Z,18.57
2023-05-10T11:14:28.454Z,18.84
2023-05-10T11:16:42.708Z,18.69
2023-05-10T11:19:08.676Z,18.29
2023-05-10T11:21:11.698Z,18.38
2023-05-10T11:23:16.816Z,18.18
2023-05-10T11:25:18.756Z,18.35
2023-05-10T11:27:21.438Z,18.42
2023-05-10T11:29:23.395Z,18.43
2023-05-10T11:31:27.612Z,18.41
2023-05-10T11:33:29.372Z,17.78
2023-05-10T11:35:30.928Z,17.86
2023-05-10T11:37:35.159Z,18.12
2023-05-10T11:39:36.768Z,18.28
2023-05-10T11:41:38.328Z,17.82
2023-05-10T11:43:40.918Z,17.92
2023-05-10T11:45:42.495Z,18.15
2023-05-10T11:47:44.623Z,17.99
2023-05-10T11:49:47.069Z,18.28
2023-05-10T11:51:48.706Z,18.36
2023-05-10T11:53:52.270Z,18.54
2023-05-10T11:55:54.106Z,17.95
2023-05-10T11:57:55.985Z,17.98
2023-05-10T11:59:58.433Z,18.19
2023-05-10T12:02:00.387Z,18.32
2023-05-10T12:04:02.363Z,18.41
2023-05-10T12:06:04.516Z,18.68
2023-05-10T12:08:16.411Z,18.45
2023-05-10T12:10:26.552Z,18.05
2023-05-10T12:12:28.036Z,18.13
2023-05-10T12:14:34.248Z,17.79
2023-05-10T12:16:36.896Z,17.87
2023-05-10T12:18:41.287Z,17.65
2023-05-10T12:20:43.469Z,17.75
2023-05-10T12:22:52.434Z,17.65
2023-05-10T12:24:53.994Z,17.38
2023-05-10T12:26:55.627Z,17.61
2023-05-10T12:29:13.833Z,17.99
2023-05-10T12:31:15.471Z,18.11
2023-05-10T12:33:18.997Z,18.27
2023-05-10T12:35:23.007Z,18.38
2023-05-10T12:37:28.548Z,18.51
2023-05-10T12:39:44.241Z,18.80
2023-05-10T12:41:45.762Z,19.14
2023-05-10T12:43:47.451Z,19.24
2023-05-10T12:45:49.840Z,19.15
2023-05-10T12:49:53.063Z,18.71
2023-05-10T12:51:54.590Z,19.18
2023-05-10T12:53:56.515Z,19.11
2023-05-10T12:55:58.434Z,19.35
2023-05-10T12:57:59.960Z,18.84
2023-05-10T13:00:01.515Z,18.48
2023-05-10T13:02:03.065Z,18.41
2023-05-10T13:04:04.617Z,17.92
2023-05-10T13:06:07.313Z,17.42
2023-05-10T13:08:08.854Z,18.03
2023-05-10T13:10:11.425Z,18.55
2023-05-10T13:12:12.979Z,18.62
2023-05-10T13:14:15.365Z,19.03
2023-05-10T13:16:16.913Z,18.49
2023-05-10T13:18:18.594Z,18.85
2023-05-10T13:20:20.514Z,19.34
2023-05-10T13:22:32.496Z,19.57
2023-05-10T13:24:41.100Z,20.07
2023-05-10T13:26:42.632Z,19.92
2023-05-10T13:28:44.700Z,19.73
2023-05-10T13:30:46.799Z,19.47
2023-05-10T13:32:48.399Z,19.90
2023-05-10T13:34:49.904Z,19.87
2023-05-10T13:36:51.667Z,19.96
2023-05-10T13:38:53.193Z,20.14
2023-05-10T13:40:54.738Z,20.17
2023-05-10T13:42:56.245Z,20.73
2023-05-10T13:44:57.992Z,20.92
2023-05-10T13:46:59.571Z,20.52
2023-05-10T13:49:01.086Z,21.05
2023-05-10T13:51:02.561Z,21.10
2023-05-10T13:53:04.101Z,21.12
2023-05-10T13:55:05.919Z,20.98
2023-05-10T13:57:07.741Z,21.20
2023-05-10T13:59:09.335Z,20.51
2023-05-10T14:01:11.072Z,20.62
2023-05-10T14:03:12.777Z,20.80
2023-05-10T14:05:14.476Z,20.60
2023-05-10T14:07:16.004Z,20.71
2023-05-10T14:09:17.642Z,20.93
2023-05-10T14:11:19.204Z,20.84
2023-05-10T14:13:20.748Z,20.82
2023-05-10T14:15:22.463Z,20.68
2023-05-10T14:17:24.095Z,20.74
2023-05-10T14:19:25.897Z,20.56
2023-05-10T14:21:27.633Z,20.89
2023-05-10T14:23:29.868Z,21.04
2023-05-10T14:25:31.611Z,21.01
2023-05-10T14:27:33.357Z,21.50
2023-05-10T14:29:34.929Z,21.09
2023-05-10T14:31:36.794Z,21.91
2023-05-10T14:33:38.375Z,22.18
2023-05-10T14:35:40.238Z,22.10
2023-05-10T14:37:41.825Z,21.71
2023-05-10T14:39:43.784Z,22.13
2023-05-10T14:41:46.749Z,22.15
2023-05-10T14:43:48.345Z,22.12
2023-05-10T14:45:49.945Z,22.60
2023-05-10T14:47:51.586Z,22.96
2023-05-10T14:49:53.149Z,23.41
2023-05-10T14:51:54.698Z,24.08
2023-05-10T14:53:56.327Z,23.87
2023-05-10T14:56:00.494Z,23.77
2023-05-10T14:58:03.832Z,23.42
2023-05-10T15:00:06.180Z,22.95
2023-05-10T15:02:09.402Z,22.28
2023-05-10T15:04:11.349Z,22.73
2023-05-10T15:06:16.006Z,22.11
2023-05-10T15:08:17.536Z,24.95
2023-05-10T15:10:19.398Z,29.80
2023-05-10T15:12:21.396Z,28.55
2023-05-10T15:14:23.677Z,29.16
2023-05-10T15:16:25.815Z,30.55
2023-05-10T15:18:27.432Z,31.35
2023-05-10T15:20:29.126Z,32.30
2023-05-10T15:22:34.322Z,34.86
2023-05-10T15:24:36.157Z,36.57
2023-05-10T15:26:37.737Z,38.08
2023-05-10T15:28:39.262Z,38.74
2023-05-10T15:30:40.764Z,39.55
2023-05-10T15:32:42.341Z,37.07
2023-05-10T15:34:43.930Z,31.54
2023-05-10T15:36:46.010Z,28.82
2023-05-10T15:38:47.586Z,28.29
2023-05-10T15:40:49.137Z,33.14
2023-05-10T15:42:50.683Z,29.62
2023-05-10T15:44:52.272Z,31.90
2023-05-10T15:46:53.824Z,28.98
2023-05-10T15:48:55.699Z,27.75
2023-05-10T15:50:57.238Z,26.30
2023-05-10T15:52:58.771Z,26.04
2023-05-10T15:55:00.355Z,27.45
2023-05-10T15:57:01.958Z,26.27
2023-05-10T15:59:03.906Z,25.79
2023-05-10T16:01:08.787Z,26.39
2023-05-10T16:03:10.430Z,29.97
2023-05-10T16:05:12.128Z,32.22
2023-05-10T16:07:13.670Z,30.85
2023-05-10T16:09:15.675Z,27.80
2023-05-10T16:11:17.308Z,29.56
2023-05-10T16:13:18.960Z,31.48
2023-05-10T16:15:21.878Z,33.46
2023-05-10T16:17:23.559Z,34.99
2023-05-10T16:19:25.937Z,35.89
2023-05-10T16:21:32.283Z,31.25
2023-05-10T16:23:33.870Z,28.42
2023-05-10T16:25:35.714Z,26.71
2023-05-10T16:27:37.326Z,25.35
2023-05-10T16:29:38.960Z,25.24
2023-05-10T16:31:40.495Z,24.17
2023-05-10T16:33:42.079Z,23.97
2023-05-10T16:35:43.951Z,24.07
2023-05-10T16:37:45.499Z,23.99
2023-05-10T16:39:47.114Z,23.94
2023-05-10T16:41:48.663Z,24.33
2023-05-10T16:43:50.538Z,23.93
2023-05-10T16:45:52.292Z,24.26
2023-05-10T16:47:53.924Z,24.24
2023-05-10T16:49:55.471Z,23.90
2023-05-10T16:51:57.003Z,23.07
2023-05-10T16:53:58.905Z,22.68
2023-05-10T16:56:00.827Z,22.58
2023-05-10T16:58:02.992Z,22.17
2023-05-10T17:00:05.307Z,21.97
2023-05-10T17:02:07.035Z,21.80
2023-05-10T17:04:08.704Z,21.06
2023-05-10T17:06:12.063Z,21.20
2023-05-10T17:08:13.608Z,21.29
2023-05-10T17:10:15.336Z,21.06
2023-05-10T17:12:17.167Z,21.17
2023-05-10T17:14:18.713Z,21.24
2023-05-10T17:16:21.333Z,21.09
2023-05-10T17:18:23.075Z,21.08
2023-05-10T17:20:24.605Z,20.98
2023-05-10T17:22:26.132Z,20.65
2023-05-10T17:24:29.726Z,20.47
2023-05-10T17:26:31.392Z,20.47
2023-05-10T17:28:32.893Z,20.03
2023-05-10T17:30:34.448Z,19.91
2023-05-10T17:32:36.054Z,19.62
2023-05-10T17:34:38.863Z,19.39
2023-05-10T17:36:41.578Z,19.67
2023-05-10T17:38:43.495Z,19.64
2023-05-10T17:40:45.027Z,19.37
2023-05-10T17:42:46.568Z,19.24
2023-05-10T17:44:48.176Z,19.08
2023-05-10T17:46:49.713Z,18.98
2023-05-10T17:48:51.315Z,18.98
2023-05-10T17:50:52.929Z,18.87
2023-05-10T17:52:54.474Z,18.76
2023-05-10T17:54:56.015Z,18.52
2023-05-10T17:56:58.173Z,17.87
2023-05-10T17:58:59.715Z,18.09
2023-05-10T18:01:01.314Z,17.81
2023-05-10T18:03:03.727Z,17.86
2023-05-10T18:05:05.820Z,17.58
2023-05-10T18:07:07.908Z,17.64
2023-05-10T18:09:09.621Z,17.51
2023-05-10T18:11:11.144Z,16.85
2023-05-10T18:13:12.698Z,16.85
2023-05-10T18:15:14.281Z,16.73
2023-05-10T18:17:15.930Z,16.49
2023-05-10T18:19:17.512Z,16.13
2023-05-10T18:21:19.171Z,16.23
2023-05-10T18:23:20.974Z,15.94
2023-05-10T18:25:22.542Z,15.77
2023-05-10T18:27:24.371Z,15.81
2023-05-10T18:29:26.300Z,15.33
2023-05-10T18:31:27.963Z,15.48
2023-05-10T18:33:29.555Z,15.46
2023-05-10T18:35:31.278Z,15.40
2023-05-10T18:37:33.334Z,15.23
2023-05-10T18:39:35.952Z,15.31
2023-05-10T18:41:37.667Z,15.22
2023-05-10T18:43:39.236Z,15.17
2023-05-10T18:45:40.779Z,15.08
2023-05-10T18:47:42.872Z,14.86
2023-05-10T18:49:46.204Z,14.83
2023-05-10T18:51:47.753Z,14.91
2023-05-10T18:53:49.465Z,14.59
2023-05-10T18:55:58.586Z,14.69
2023-05-10T18:58:00.415Z,14.70
2023-05-10T19:00:02.022Z,14.78
2023-05-10T19:02:04.639Z,14.66
2023-05-10T19:04:06.231Z,14.68
2023-05-10T19:06:07.896Z,14.51
2023-05-10T19:08:09.519Z,14.60
2023-05-10T19:10:13.065Z,14.42
2023-05-10T19:12:14.563Z,14.45
2023-05-10T19:14:16.309Z,14.52
2023-05-10T19:16:23.385Z,14.50
2023-05-10T19:18:26.341Z,14.32
2023-05-10T19:24:35.138Z,14.40
2023-05-10T19:26:36.894Z,14.36
2023-05-10T19:28:38.478Z,14.35
2023-05-10T19:30:40.049Z,14.35
2023-05-10T19:32:44.090Z,14.38
2023-05-10T19:34:45.764Z,14.39
2023-05-10T19:36:47.389Z,14.40
2023-05-10T19:38:49.074Z,14.40
2023-05-10T19:40:57.408Z,14.38
2023-05-10T19:43:00.345Z,14.38
2023-05-10T19:45:01.921Z,14.40
2023-05-10T19:47:05.165Z,14.38
2023-05-10T19:49:06.822Z,14.40
2023-05-10T19:51:10.268Z,14.38
2023-05-10T19:53:12.088Z,14.38
2023-05-10T19:55:25.142Z,14.35
2023-05-10T19:57:27.528Z,14.34
2023-05-10T19:59:29.128Z,14.37
2023-05-10T20:01:32.718Z,14.38
2023-05-10T20:03:35.346Z,14.36
2023-05-10T20:05:36.950Z,14.33
2023-05-10T20:07:38.484Z,14.32
2023-05-10T20:09:40.106Z,14.28
2023-05-10T20:11:41.665Z,14.26
2023-05-10T20:13:43.184Z,14.20
2023-05-10T20:15:45.650Z,14.22
2023-05-10T20:17:48.544Z,14.23
2023-05-10T20:19:50.290Z,14.20
2023-05-10T20:21:51.925Z,14.21
2023-05-10T20:23:53.547Z,14.15
2023-05-10T20:25:55.223Z,14.13
2023-05-10T20:27:56.852Z,14.09
2023-05-10T20:29:58.507Z,14.09
2023-05-10T20:32:00.303Z,14.09
2023-05-10T20:34:01.856Z,14.07
2023-05-10T20:36:03.845Z,14.08
2023-05-10T20:38:05.680Z,14.07
2023-05-10T20:40:07.972Z,14.04
2023-05-10T20:42:09.622Z,13.98
2023-05-10T20:44:11.191Z,13.99
2023-05-10T20:46:12.802Z,13.94
2023-05-10T20:48:14.500Z,13.94
2023-05-10T20:50:17.138Z,13.96
2023-05-10T20:52:18.959Z,13.88
2023-05-10T20:54:22.067Z,13.93
2023-05-10T20:56:24.056Z,13.92
2023-05-10T20:58:26.881Z,13.90
2023-05-10T21:00:28.451Z,13.82
2023-05-10T21:02:30.095Z,13.86
2023-05-10T21:04:32.031Z,13.82
2023-05-10T21:06:33.623Z,13.76
2023-05-10T21:08:35.176Z,13.81
2023-05-10T21:10:36.818Z,13.81
2023-05-10T21:12:38.443Z,13.79
2023-05-10T21:14:40.112Z,13.82
2023-05-10T21:16:41.830Z,13.80
2023-05-10T21:18:43.448Z,13.75
2023-05-10T21:20:45.001Z,13.80
2023-05-10T21:22:46.570Z,13.74
2023-05-10T21:24:48.200Z,13.69
2023-05-10T21:26:49.688Z,13.65
2023-05-10T21:28:51.511Z,13.64
2023-05-10T21:30:53.060Z,13.67
2023-05-10T21:32:59.505Z,13.45
2023-05-10T21:35:01.245Z,13.57
2023-05-10T21:37:02.783Z,13.52
2023-05-10T21:39:04.337Z,13.56
2023-05-10T21:41:08.758Z,13.53
2023-05-10T21:43:11.251Z,13.50
2023-05-10T21:45:12.987Z,13.50
2023-05-10T21:47:14.514Z,13.49
2023-05-10T21:49:16.043Z,13.44
2023-05-10T21:51:17.661Z,13.34
2023-05-10T21:53:19.709Z,13.32
2023-05-10T21:55:21.322Z,13.35
2023-05-10T21:57:22.926Z,13.37
2023-05-10T21:59:24.620Z,13.34
2023-05-10T22:01:26.238Z,13.29
2023-05-10T22:03:28.004Z,13.26
2023-05-10T22:05:29.853Z,13.27
2023-05-10T22:07:32.320Z,13.26
2023-05-10T22:09:33.837Z,13.23
2023-05-10T22:11:35.426Z,13.24
2023-05-10T22:13:36.921Z,13.26
2023-05-10T22:15:38.466Z,13.20
2023-05-10T22:17:40.588Z,13.17
2023-05-10T22:19:42.392Z,13.15
2023-05-10T22:21:44.007Z,13.12
2023-05-10T22:23:45.543Z,13.12
2023-05-10T22:25:47.049Z,13.09
2023-05-10T22:27:48.800Z,13.02
2023-05-10T22:29:50.306Z,13.04
2023-05-10T22:31:51.886Z,13.05
2023-05-10T22:33:53.379Z,13.08
2023-05-10T22:35:54.969Z,13.04
2023-05-10T22:37:56.582Z,12.97
2023-05-10T22:39:58.093Z,12.96
2023-05-10T22:41:59.669Z,12.99
2023-05-10T22:46:29.298Z,12.98
2023-05-10T22:48:34.100Z,12.98
2023-05-10T22:50:37.132Z,12.96
2023-05-10T22:52:39.420Z,12.92
2023-05-10T22:54:40.945Z,12.88
2023-05-10T22:56:42.659Z,12.86
2023-05-10T22:58:44.276Z,12.88
2023-05-10T23:00:45.806Z,12.88
2023-05-10T23:02:47.422Z,12.88
2023-05-10T23:04:49.261Z,12.87
2023-05-10T23:06:50.844Z,12.82
2023-05-10T23:08:52.410Z,12.79
2023-05-10T23:10:53.966Z,12.85
2023-05-10T23:12:56.120Z,12.86
2023-05-10T23:14:57.653Z,12.83
2023-05-10T23:16:59.206Z,12.85
2023-05-10T23:19:00.762Z,12.85
2023-05-10T23:21:02.412Z,12.79
2023-05-10T23:23:03.993Z,12.81
2023-05-10T23:25:06.014Z,12.82
2023-05-10T23:27:07.656Z,12.79
2023-05-10T23:29:09.214Z,12.78
2023-05-10T23:31:11.097Z,12.79
2023-05-10T23:33:14.255Z,12.78
2023-05-10T23:35:16.005Z,12.79
2023-05-10T23:37:17.552Z,12.76
2023-05-10T23:39:19.090Z,12.77
2023-05-10T23:41:20.647Z,12.75
2023-05-10T23:43:22.318Z,12.77
2023-05-10T23:45:23.861Z,12.75
2023-05-10T23:47:25.604Z,12.74
2023-05-10T23:49:27.358Z,12.76
2023-05-10T23:51:28.888Z,12.77
2023-05-10T23:53:30.612Z,12.80
2023-05-10T23:55:32.103Z,12.81
2023-05-10T23:57:33.672Z,12.80
2023-05-10T23:59:35.194Z,12.75
